Latest Weather Observations for Young

IDN60801

Issued at 11:23 pm EST Friday 16 April 2021 (issued every 10 minutes, with the page automatically refreshed every 10 minutes)

About weather observations | Map of weather stations | Latest weather observations for NSW | Other Formats
Station Details ID: 073138 Name: YOUNG AIRPORT Lat: -34.25 Lon: 148.25 Height: 379.6 m
Data from the previous 72 hours. | See also: Recent months at Young
Date/Time
EST
Temp
°C
App
Temp
°C
Dew
Point
°C
Rel
Hum
%
Delta-T
°C
Wind Press
QNH
hPa
Press
MSL
hPa
Rain since
9am
mm
Dir  Spd
km/h
Gust
km/h
Spd
kts
Gust
kts
16/11:00pm 4.5 1.3 3.0 90 0.6 SSW 9 13 5 7 1022.5 1022.0 0.0
16/10:30pm 3.9 0.7 3.2 95 0.3 S 9 15 5 8 1022.5 1022.0 0.0
16/10:00pm 4.4 1.7 3.7 95 0.3 S 7 9 4 5 1022.4 1021.9 0.0
16/09:30pm 4.3 1.5 3.4 94 0.4 S 7 9 4 5 1022.4 1021.9 0.0
16/09:00pm 5.5 2.9 4.0 90 0.6 SSW 7 9 4 5 1022.2 1021.7 0.0
16/08:30pm 6.3 3.9 4.1 86 1.0 SSW 6 7 3 4 1022.2 1021.7 0.0
16/08:00pm 7.0 4.5 4.5 84 1.1 S 7 9 4 5 1022.0 1021.5 0.0
16/07:30pm 7.8 5.3 4.6 80 1.4 S 7 9 4 5 1021.8 1021.3 0.0
16/07:00pm 8.4 6.0 4.2 75 1.9 SSW 6 7 3 4 1021.6 1021.1 0.0
16/06:30pm 9.8 7.3 3.5 65 2.8 SSW 6 7 3 4 1021.2 1020.7 0.0
16/06:00pm 12.7 10.7 4.2 56 3.9 SSW 4 7 2 4 1020.9 1020.3 0.0
16/05:30pm 16.1 13.4 3.9 44 5.8 WSW 7 7 4 4 1020.6 1020.0 0.0
16/05:00pm 18.3 15.0 2.2 34 7.5 SW 9 11 5 6 1020.3 1019.7 0.0
16/04:30pm 19.6 17.0 3.3 34 7.8 WSW 6 13 3 7 1020.0 1019.5 0.0
16/04:00pm 19.4 16.4 2.3 32 8.0 SW 7 15 4 8 1020.0 1019.5 0.0
16/03:30pm 19.6 16.2 1.6 30 8.4 S 9 15 5 8 1020.0 1019.5 0.0
16/03:00pm 19.8 17.3 3.5 34 7.8 S 6 13 3 7 1020.0 1019.5 0.0
16/02:30pm 19.5 15.8 2.4 32 8.1 SSW 11 20 6 11 1020.0 1019.5 0.0
16/02:00pm 19.6 17.1 3.7 35 7.7 SSE 6 9 3 5 1020.1 1019.6 0.0
16/01:30pm 19.9 17.3 5.9 40 7.1 WSW 9 15 5 8 1020.1 1019.6 0.0
16/01:00pm 19.4 17.1 4.7 38 7.2 WSW 6 17 3 9 1020.6 1020.0 0.0
16/12:30pm 19.1 17.1 6.2 43 6.5 SW 6 11 3 6 1020.8 1020.2 0.0
16/12:00pm 18.9 16.6 7.4 47 5.9 SSE 9 15 5 8 1021.3 1020.8 0.0
16/11:30am 18.2 16.0 6.4 46 6.0 SSE 7 15 4 8 1021.6 1021.1 0.0
16/11:00am 17.3 14.2 5.6 46 5.8 S 11 19 6 10 1021.9 1021.4 0.0
16/10:30am 16.5 13.8 5.5 48 5.4 SSW 9 13 5 7 1021.9 1021.4 0.0
16/10:00am 16.2 13.9 7.4 56 4.5 S 9 13 5 7 1022.1 1021.6 0.0
16/09:30am 14.5 13.9 7.5 63 3.5 CALM 0 0 0 0 1022.1 1021.6 0.0
16/09:00am 11.5 10.8 8.7 83 1.4 SSW 2 7 1 4 1022.1 1021.6 0.0
16/08:30am 9.4 8.0 8.9 97 0.3 SSW 6 7 3 4 1022.0 1021.5 0.0
16/08:00am 6.2 4.2 6.1 99 0.0 S 6 7 3 4 1021.6 1021.1 0.0
16/07:30am 4.5 2.1 4.5 100 0.0 SSW 6 7 3 4 1021.4 1020.9 0.0
16/07:00am 2.7 -0.2 2.7 100 0.0 SSW 7 7 4 4 1021.0 1020.4 0.0
16/06:30am 2.7 0.0 2.7 100 0.0 S 6 7 3 4 1020.5 1019.9 0.0
16/06:00am 3.2 0.6 3.2 100 0.0 SSW 6 7 3 4 1020.1 1019.6 0.0
16/05:30am 3.0 0.4 3.0 100 0.0 SSW 6 7 3 4 1020.0 1019.5 0.0
16/05:00am 2.9 0.2 2.8 99 0.0 SSW 6 6 3 3 1019.8 1019.3 0.0
16/04:30am 3.1 0.5 3.0 99 0.0 SSW 6 7 3 4 1019.5 1019.0 0.0
16/04:00am 3.0 0.2 2.9 99 0.0 S 7 7 4 4 1019.1 1018.6 0.0
16/03:30am 2.7 0.0 2.6 99 0.0 SW 6 7 3 4 1019.1 1018.6 0.0
16/03:00am 3.2 0.6 3.1 99 0.0 S 6 7 3 4 1019.1 1018.6 0.0
16/02:30am 3.4 0.8 3.3 99 0.0 SSW 6 6 3 3 1019.1 1018.6 0.0
16/02:00am 3.6 1.1 3.5 99 0.0 S 6 7 3 4 1019.2 1018.7 0.0
16/01:30am 4.1 1.5 4.0 99 0.0 S 7 9 4 5 1019.2 1018.7 0.0
16/01:00am 4.0 2.7 3.9 99 0.0 CALM 0 0 0 0 1019.2 1018.7 0.0
16/12:30am 4.5 3.2 4.2 98 0.1 CALM 0 0 0 0 1019.4 1018.9 0.0
16/12:00am 5.3 4.2 5.2 99 0.0 CALM 0 0 0 0 1019.4 1018.9 0.0
 
Date/Time
EST
Temp
°C
App
Temp
°C
Dew
Point
°C
Rel
Hum
%
Delta-T
°C
Wind Press
QNH
hPa
Press
MSL
hPa
Rain since
9am
mm
Dir  Spd
km/h
Gust
km/h
Spd
kts
Gust
kts
15/11:30pm 5.6 4.5 5.2 97 0.2 CALM 0 0 0 0 1019.4 1018.9 0.0
15/11:00pm 6.0 3.8 5.1 94 0.4 SSW 6 7 3 4 1019.4 1018.9 0.0
15/10:30pm 6.3 4.9 5.3 93 0.5 SSW 2 7 1 4 1019.3 1018.8 0.0
15/10:00pm 6.7 5.7 5.5 92 0.5 CALM 0 0 0 0 1019.3 1018.8 0.0
15/09:30pm 6.9 5.8 5.1 88 0.8 CALM 0 0 0 0 1019.3 1018.8 0.0
15/09:00pm 7.7 6.7 5.5 86 1.0 CALM 0 0 0 0 1019.1 1018.6 0.0
15/08:30pm 8.4 7.3 5.3 81 1.4 CALM 0 0 0 0 1018.8 1018.2 0.0
15/08:00pm 8.8 7.0 5.2 78 1.6 S 4 7 2 4 1018.3 1017.7 0.0
15/07:30pm 10.4 8.1 4.8 68 2.6 WSW 6 7 3 4 1018.1 1017.5 0.0
15/07:00pm 11.8 9.4 4.5 61 3.4 W 6 7 3 4 1017.8 1017.2 0.0
15/06:30pm 13.4 11.0 4.3 54 4.2 W 6 7 3 4 1017.3 1016.8 0.0
15/06:00pm 14.7 12.1 4.4 50 4.9 WNW 7 11 4 6 1016.8 1016.3 0.0
15/05:30pm 15.4 12.9 4.8 49 5.1 W 7 11 4 6 1016.4 1015.8 0.0
15/05:00pm 16.3 13.1 5.3 48 5.4 WSW 11 17 6 9 1016.3 1015.7 0.0
15/04:30pm 17.1 13.3 6.0 48 5.5 WSW 15 24 8 13 1016.1 1015.5 0.0
15/04:00pm 18.0 14.4 5.2 43 6.3 WSW 13 24 7 13 1015.8 1015.2 0.0
15/03:30pm 19.1 15.6 5.6 41 6.8 W 13 24 7 13 1015.6 1015.0 0.0
15/03:00pm 18.9 14.9 5.0 40 6.9 WSW 15 26 8 14 1015.6 1015.0 0.0
15/02:30pm 19.0 14.7 5.1 40 6.9 WSW 17 26 9 14 1015.7 1015.1 0.0
15/02:00pm 19.6 15.2 6.4 42 6.7 WSW 19 32 10 17 1015.6 1015.0 0.0
15/01:30pm 19.1 14.2 5.2 40 6.9 SW 20 32 11 17 1016.0 1015.4 0.0
15/01:00pm 19.7 16.6 7.1 44 6.5 WSW 13 24 7 13 1016.4 1015.8 0.0
15/12:30pm 18.5 14.1 6.7 46 6.0 WSW 19 28 10 15 1016.9 1016.4 0.0
15/12:00pm 18.2 13.2 6.4 46 5.9 WSW 22 32 12 17 1017.3 1016.8 0.0
15/11:30am 18.4 14.3 7.8 50 5.5 WSW 19 30 10 16 1017.8 1017.2 0.0
15/11:00am 18.2 13.8 6.7 47 5.8 WSW 19 28 10 15 1018.1 1017.5 0.0
15/10:30am 18.2 14.3 7.0 48 5.7 WSW 17 24 9 13 1018.0 1017.4 0.0
15/10:00am 17.4 16.0 8.8 57 4.5 N 6 9 3 5 1018.0 1017.4 0.0
15/09:30am 15.5 14.3 9.4 67 3.2 N 6 9 3 5 1018.0 1017.4 0.0
15/09:00am 13.0 12.0 8.7 75 2.2 NNE 4 9 2 5 1018.2 1017.6 0.0
15/08:30am 9.6 9.3 8.5 93 0.5 CALM 0 0 0 0 1018.2 1017.6 0.0
15/08:00am 6.5 5.3 6.5 100 0.0 SSW 2 11 1 6 1018.3 1017.7 0.0
15/07:30am 3.9 1.4 3.9 100 0.0 S 6 7 3 4 1017.9 1017.3 0.0
15/07:00am 2.0 -1.0 2.0 100 0.0 S 7 9 4 5 1017.7 1017.1 0.0
15/06:30am 1.3 -1.6 1.2 99 0.0 SSW 6 7 3 4 1017.3 1016.8 0.0
15/06:00am 1.7 -1.2 1.7 100 0.0 SSW 6 9 3 5 1017.2 1016.7 0.0
15/05:30am 1.8 -1.2 1.7 99 0.0 SSW 7 7 4 4 1017.1 1016.6 0.0
15/05:00am 2.1 -0.7 2.1 100 0.0 SSW 6 7 3 4 1016.9 1016.4 0.0
15/04:30am 2.1 -0.9 2.0 99 0.0 S 7 9 4 5 1016.7 1016.2 0.0
15/04:00am 1.8 -1.1 1.7 99 0.0 S 6 7 3 4 1016.5 1015.9 0.0
15/03:30am 2.5 0.1 2.4 99 0.0 SSW 4 6 2 3 1016.4 1015.8 0.0
15/03:00am 2.5 0.5 2.4 99 0.0 SSW 2 7 1 4 1016.4 1015.8 0.0
15/02:30am 3.4 0.6 3.4 100 0.0 SSW 7 9 4 5 1016.6 1016.1 0.0
15/02:00am 2.7 -0.2 2.6 99 0.0 SSW 7 9 4 5 1016.8 1016.3 0.0
15/01:30am 3.2 0.6 3.1 99 0.0 S 6 9 3 5 1016.8 1016.3 0.0
15/01:00am 3.4 0.8 3.3 99 0.0 SW 6 7 3 4 1016.9 1016.4 0.0
15/12:30am 4.5 2.1 4.4 99 0.0 SSW 6 6 3 3 1017.0 1016.5 0.0
15/12:00am 4.2 1.8 4.1 99 0.0 S 6 7 3 4 1017.1 1016.6 0.0
 
Date/Time
EST
Temp
°C
App
Temp
°C
Dew
Point
°C
Rel
Hum
%
Delta-T
°C
Wind Press
QNH
hPa
Press
MSL
hPa
Rain since
9am
mm
Dir  Spd
km/h
Gust
km/h
Spd
kts
Gust
kts
14/11:30pm 5.2 2.8 5.1 99 0.0 SSW 7 7 4 4 1017.1 1016.6 0.0
14/11:00pm 5.2 2.8 4.3 94 0.4 SSW 6 7 3 4 1017.2 1016.7 0.0
14/10:30pm 6.3 4.0 4.6 89 0.8 SSW 6 7 3 4 1017.3 1016.8 0.0
14/10:00pm 7.7 6.7 5.5 86 1.0 CALM 0 0 0 0 1017.5 1016.9 0.0
14/09:30pm 7.4 5.9 4.9 84 1.1 SSW 2 6 1 3 1017.2 1016.7 0.0
14/09:00pm 8.8 6.8 4.6 75 1.9 SSW 4 7 2 4 1016.8 1016.3 0.0
14/08:30pm 8.8 6.8 4.6 75 1.9 SSE 4 7 2 4 1016.7 1016.2 0.0
14/08:00pm 10.2 8.1 4.1 66 2.8 SW 4 7 2 4 1016.4 1015.8 0.0
14/07:30pm 11.9 9.2 3.7 57 3.7 W 7 11 4 6 1016.0 1015.4 0.0
14/07:00pm 14.9 12.1 3.4 46 5.3 NW 7 9 4 5 1015.7 1015.1 0.0
14/06:30pm 16.2 13.0 3.3 42 6.0 NNW 9 15 5 8 1015.2 1014.6 0.0
14/06:00pm 17.7 14.1 3.2 38 6.8 NNW 11 17 6 9 1014.8 1014.2 0.0
14/05:30pm 19.5 15.5 2.8 33 7.9 NNW 13 24 7 13 1014.4 1013.9 0.0
14/05:00pm 20.7 16.4 3.0 31 8.5 NW 15 24 8 13 1014.3 1013.8 0.0
14/04:30pm 20.7 16.4 3.0 31 8.5 WNW 15 22 8 12 1014.3 1013.8 0.0
14/04:00pm 21.4 15.7 2.6 29 9.0 NW 22 32 12 17 1014.0 1013.4 0.0
14/03:30pm 21.3 15.9 2.6 29 9.0 NW 20 32 11 17 1014.1 1013.5 0.0
14/03:00pm 21.6 16.2 2.3 28 9.2 NW 20 33 11 18 1013.9 1013.3 0.0
14/02:30pm 21.0 16.6 2.8 30 8.7 NW 15 28 8 15 1014.3 1013.8 0.0
14/02:00pm 20.4 15.9 4.4 35 7.9 NW 17 26 9 14 1014.5 1014.0 0.0
14/01:30pm 19.8 15.6 3.9 35 7.7 NW 15 28 8 15 1015.0 1014.4 0.0
14/01:00pm 19.8 15.1 3.1 33 8.0 NW 17 28 9 15 1015.3 1014.7 0.0
14/12:30pm 20.1 15.0 2.9 32 8.2 NW 19 30 10 16 1015.5 1014.9 0.0
14/12:00pm 19.9 15.4 4.4 36 7.6 NW 17 26 9 14 1015.8 1015.2 0.0
14/11:30am 19.4 14.3 3.2 34 7.7 NW 19 28 10 15 1016.3 1015.7 0.0
14/11:00am 19.8 14.5 3.1 33 8.0 NW 20 33 11 18 1016.3 1015.7 0.0
14/10:30am 18.7 14.3 4.8 40 6.8 N 17 24 9 13 1016.5 1015.9 0.0
14/10:00am 17.9 13.5 4.5 41 6.5 N 17 24 9 13 1016.6 1016.1 0.0
14/09:30am 16.4 12.3 4.4 45 5.7 N 15 20 8 11 1017.0 1016.5 0.0
14/09:00am 16.2 12.2 4.9 47 5.5 N 15 20 8 11 1017.2 1016.7 0.0
14/08:30am 15.6 11.1 4.3 47 5.4 N 17 22 9 12 1017.2 1016.7 0.0
14/08:00am 15.5 12.2 6.5 55 4.5 N 13 20 7 11 1017.0 1016.5 0.0
14/07:30am 12.1 9.5 6.2 67 2.8 N 9 13 5 7 1016.8 1016.3 0.0
14/07:00am 7.6 6.8 6.7 94 0.4 CALM 0 0 0 0 1016.6 1016.1 0.0
14/06:30am 7.6 6.8 6.7 94 0.4 CALM 0 0 0 0 1016.6 1016.1 0.0
14/06:00am 7.4 5.4 6.2 92 0.6 N 6 9 3 5 1016.6 1016.1 0.0
14/05:30am 7.2 5.4 7.1 99 0.0 NE 6 9 3 5 1016.3 1015.7 0.0
14/05:00am 7.2 6.5 7.1 99 0.0 CALM 0 0 0 0 1016.2 1015.6 0.0
14/04:30am 6.6 5.8 6.5 99 0.0 CALM 0 0 0 0 1016.1 1015.5 0.0
14/04:00am 5.8 3.6 5.4 97 0.2 SSW 6 7 3 4 1016.3 1015.7 0.0
14/03:30am 6.8 6.0 6.7 99 0.0 CALM 0 0 0 0 1016.0 1015.4 0.0
14/03:00am 6.5 5.7 6.4 99 0.0 CALM 0 0 0 0 1016.4 1015.8 0.0
14/02:30am 5.7 3.6 5.7 100 0.0 SW 6 7 3 4 1016.6 1016.1 0.0
14/02:00am 4.3 1.9 4.2 99 0.0 SSE 6 7 3 4 1016.9 1016.4 0.0
14/01:30am 4.5 2.1 4.4 99 0.0 SSW 6 7 3 4 1017.1 1016.6 0.0
14/01:00am 4.7 3.5 4.6 99 0.0 CALM 0 0 0 0 1017.2 1016.7 0.0
14/12:30am 5.0 3.9 4.9 99 0.0 CALM 0 0 0 0 1017.2 1016.7 0.0
14/12:00am 5.0 3.1 4.9 99 0.0 SW 4 7 2 4 1017.8 1017.2 0.0
 
Date/Time
EST
Temp
°C
App
Temp
°C
Dew
Point
°C
Rel
Hum
%
Delta-T
°C
Wind Press
QNH
hPa
Press
MSL
hPa
Rain since
9am
mm
Dir  Spd
km/h
Gust
km/h
Spd
kts
Gust
kts
13/11:30pm 5.3 3.1 5.2 99 0.0 S 6 9 3 5 1018.0 1017.4 0.0

Other formats

Comma delimited format used in spreadsheet applications
http://www.bom.gov.au/fwo/IDN60801/IDN60801.94712.axf

JavaScript Object Notation format (JSON) in row-major order
http://www.bom.gov.au/fwo/IDN60801/IDN60801.94712.json

Data quality

Most of these data are generated automatically and are frequently updated. Quality checks on data are not normally performed. It is possible for incorrect values to appear. Refer to information at About Latest Weather Observations and please check the disclaimer before using these data.